Time;durP1;ratioP1;P1;durP2;ratioP2;P2;SDS_P1;SDS_P2;PMS_P1;PMS_P2;Temp;Humidity;BMP_temperature;BMP_pressure;BME280_temperature;BME280_humidity;BME280_pressure;Samples;Min_cycle;Max_cycle;Signal;HPM_P1;HPM_P2
2023/11/30 00:01:49;;;;;;;8.93;5.38;;;;;;;5.81;54.16;97662.59;5011876;28;20036;-71
2023/11/30 00:04:14;;;;;;;11.77;5.82;;;;;;;5.90;54.22;97656.59;5028217;28;20039;-71
2023/11/30 00:06:40;;;;;;;10.57;6.15;;;;;;;5.79;54.59;97659.34;5026257;28;20650;-71
2023/11/30 00:09:05;;;;;;;10.63;5.93;;;;;;;5.86;54.46;97652.66;5011122;28;20052;-71
2023/11/30 00:11:31;;;;;;;9.00;5.60;;;;;;;5.87;53.74;97636.22;5024694;28;20061;-71
2023/11/30 00:13:59;;;;;;;10.27;5.40;;;;;;;5.86;53.99;97636.34;5039595;28;20546;-71
2023/11/30 00:16:24;;;;;;;10.60;5.25;;;;;;;5.88;52.54;97637.88;5030609;28;20024;-71
2023/11/30 00:18:52;;;;;;;10.85;5.72;;;;;;;5.69;52.79;97596.63;5029488;28;20044;-71
2023/11/30 00:21:19;;;;;;;9.13;5.22;;;;;;;5.81;52.77;97625.66;5024633;28;20061;-71
2023/11/30 00:23:45;;;;;;;8.57;5.30;;;;;;;5.65;53.42;97575.44;5027486;28;20783;-71
2023/11/30 00:26:15;;;;;;;9.07;5.45;;;;;;;5.89;53.09;97611.09;5026197;28;20288;-69
2023/11/30 00:28:42;;;;;;;9.55;5.75;;;;;;;5.85;53.04;97599.44;5012487;28;20018;-71
2023/11/30 00:31:08;;;;;;;9.55;5.68;;;;;;;5.90;52.79;97614.50;5016418;28;20120;-72
2023/11/30 00:33:33;;;;;;;10.13;5.15;;;;;;;5.88;52.86;97606.09;5014178;28;20037;-72
2023/11/30 00:35:59;;;;;;;10.20;6.00;;;;;;;5.89;53.13;97594.81;5016319;28;20029;-71
2023/11/30 00:38:24;;;;;;;11.68;6.30;;;;;;;5.85;53.43;97608.94;5011681;28;20672;-71
2023/11/30 00:40:50;;;;;;;9.77;5.60;;;;;;;5.85;53.51;97607.16;5025830;28;20085;-71
2023/11/30 00:43:16;;;;;;;11.18;6.00;;;;;;;5.60;53.86;97559.56;5031653;28;20032;-71
2023/11/30 00:45:44;;;;;;;9.45;5.57;;;;;;;5.57;54.07;97552.13;5016169;28;20567;-70
2023/11/30 00:48:12;;;;;;;10.30;6.03;;;;;;;5.90;53.46;97573.22;5023459;28;20028;-71
2023/11/30 00:50:39;;;;;;;8.75;5.65;;;;;;;5.61;53.72;97548.31;5029670;28;20551;-72
2023/11/30 00:53:07;;;;;;;9.52;5.45;;;;;;;5.88;54.23;97575.94;5033763;28;20068;-71
2023/11/30 00:55:32;;;;;;;9.98;5.78;;;;;;;5.87;54.08;97581.25;5037372;28;20451;-71
2023/11/30 00:57:58;;;;;;;10.02;5.95;;;;;;;5.94;54.23;97570.22;5021828;28;20033;-71
2023/11/30 01:00:23;;;;;;;10.05;5.40;;;;;;;5.81;54.88;97550.84;5035805;28;20037;-71
2023/11/30 01:02:48;;;;;;;8.98;5.32;;;;;;;5.88;54.95;97557.06;5046991;28;20705;-71
2023/11/30 01:05:14;;;;;;;10.27;5.75;;;;;;;5.80;56.09;97551.78;5026596;28;20036;-71
2023/11/30 01:07:39;;;;;;;11.60;6.25;;;;;;;5.67;55.57;97511.63;5032200;28;20738;-71
2023/11/30 01:10:07;;;;;;;9.40;5.70;;;;;;;5.95;56.57;97555.53;5017006;28;20029;-71
2023/11/30 01:12:37;;;;;;;9.95;5.85;;;;;;;5.90;56.41;97550.00;5036430;28;20060;-71
2023/11/30 01:15:04;;;;;;;8.90;5.88;;;;;;;5.88;56.38;97557.06;5039593;28;20549;-71
2023/11/30 01:17:29;;;;;;;12.23;6.32;;;;;;;5.89;56.40;97545.78;5019732;28;20087;-71
2023/11/30 01:19:57;;;;;;;9.57;6.05;;;;;;;5.82;56.63;97532.63;5041107;28;20573;-71
2023/11/30 01:22:22;;;;;;;9.85;5.93;;;;;;;5.78;56.78;97521.78;5033529;28;20129;-71
2023/11/30 01:24:50;;;;;;;9.82;5.78;;;;;;;5.82;56.45;97536.97;5043129;28;20120;-71
2023/11/30 01:27:16;;;;;;;9.75;5.63;;;;;;;5.74;55.86;97514.47;5018259;28;20029;-71
2023/11/30 01:29:43;;;;;;;11.90;5.50;;;;;;;5.68;54.14;97521.00;5026996;28;20832;-72
2023/11/30 01:32:09;;;;;;;9.60;5.68;;;;;;;5.85;54.58;97554.78;5032434;28;21224;-71
2023/11/30 01:34:34;;;;;;;10.55;6.07;;;;;;;5.99;53.86;97558.66;5016038;28;20090;-71
2023/11/30 01:37:02;;;;;;;10.23;5.53;;;;;;;5.95;52.31;97548.66;5015061;28;20091;-71
2023/11/30 01:39:27;;;;;;;10.32;5.97;;;;;;;5.81;51.61;97504.41;5016661;28;20687;-71
2023/11/30 01:41:53;;;;;;;9.35;5.45;;;;;;;6.12;52.05;97548.88;5036693;28;20029;-71
2023/11/30 01:44:21;;;;;;;9.32;4.60;;;;;;;6.27;51.52;97557.75;5023460;28;20051;-71
2023/11/30 01:46:51;;;;;;;11.20;5.63;;;;;;;6.09;52.19;97529.28;5015477;28;20037;-72
2023/11/30 01:49:18;;;;;;;8.50;5.20;;;;;;;6.39;51.79;97573.88;5036854;28;20472;-69
2023/11/30 01:51:44;;;;;;;8.73;4.95;;;;;;;6.33;52.67;97569.28;5033344;28;20645;-71
2023/11/30 01:54:12;;;;;;;8.23;5.00;;;;;;;6.39;54.33;97571.28;5032648;28;20060;-71
2023/11/30 01:56:41;;;;;;;10.45;5.85;;;;;;;6.26;53.36;97574.22;5027292;28;20652;-72
2023/11/30 01:59:10;;;;;;;9.98;5.63;;;;;;;6.31;54.81;97569.41;5011243;28;20128;-72
2023/11/30 02:01:35;;;;;;;8.77;5.28;;;;;;;6.30;55.36;97559.25;5024071;28;20654;-72
2023/11/30 02:04:15;;;;;;;10.05;6.63;;;;;;;6.14;56.59;97554.69;5047803;28;20034;-71
2023/11/30 02:06:45;;;;;;;12.57;7.75;;;;;;;6.29;57.13;97565.34;5031497;28;20025;-71
2023/11/30 02:09:12;;;;;;;12.55;8.07;;;;;;;6.24;57.48;97544.31;5016549;28;20025;-72
2023/11/30 02:11:43;;;;;;;12.45;7.80;;;;;;;6.13;57.94;97555.63;5017589;28;20681;-71
2023/11/30 02:14:08;;;;;;;14.75;7.97;;;;;;;6.02;57.81;97551.47;5034450;28;20040;-71
2023/11/30 02:16:36;;;;;;;11.95;8.13;;;;;;;6.06;57.72;97546.84;5035374;28;20033;-71
2023/11/30 02:19:01;;;;;;;13.13;8.25;;;;;;;5.83;58.31;97499.94;5032999;28;20456;-72
2023/11/30 02:21:32;;;;;;;12.88;8.52;;;;;;;6.10;58.32;97553.34;5024247;28;20029;-71
2023/11/30 02:23:58;;;;;;;15.52;8.77;;;;;;;6.11;57.96;97545.44;5033007;28;20079;-69
2023/11/30 02:26:26;;;;;;;13.93;9.10;;;;;;;6.20;58.07;97525.72;5014148;28;20105;-72
2023/11/30 02:28:53;;;;;;;12.68;8.25;;;;;;;6.16;58.02;97514.88;5018648;28;20101;-71
2023/11/30 02:31:21;;;;;;;13.82;8.27;;;;;;;6.07;57.98;97531.22;5019667;28;20553;-70
2023/11/30 02:33:49;;;;;;;11.40;7.70;;;;;;;5.84;57.62;97486.06;5032652;28;20547;-72
2023/11/30 02:36:14;;;;;;;11.68;7.70;;;;;;;5.94;57.65;97517.81;5037263;28;20021;-71
2023/11/30 02:38:42;;;;;;;13.93;8.70;;;;;;;5.99;58.87;97532.88;5040027;28;20076;-71
2023/11/30 02:41:08;;;;;;;14.45;8.52;;;;;;;5.77;59.26;97514.19;5016163;28;20033;-71
2023/11/30 02:43:35;;;;;;;14.73;9.07;;;;;;;6.06;57.66;97506.38;5030065;28;20035;-71
2023/11/30 02:46:03;;;;;;;12.45;8.85;;;;;;;6.06;58.15;97505.53;5014857;28;20032;-71
2023/11/30 02:48:31;;;;;;;13.77;8.32;;;;;;;6.08;58.94;97517.38;5035957;28;20120;-71
2023/11/30 02:50:58;;;;;;;11.88;6.90;;;;;;;5.81;56.93;97458.78;5029522;28;20025;-71
2023/11/30 02:53:29;;;;;;;9.63;6.20;;;;;;;5.78;54.44;97459.88;5018834;28;20076;-71
2023/11/30 02:55:54;;;;;;;11.13;6.65;;;;;;;5.96;55.63;97484.94;5046941;28;20033;-71
2023/11/30 02:58:19;;;;;;;10.75;6.50;;;;;;;5.87;55.34;97442.72;5032727;28;20045;-71
2023/11/30 03:00:47;;;;;;;11.48;6.70;;;;;;;6.13;55.30;97485.94;5040440;28;20032;-71
2023/11/30 03:03:13;;;;;;;9.45;6.25;;;;;;;6.08;56.09;97476.06;5013337;28;20112;-72
2023/11/30 03:05:40;;;;;;;8.48;5.15;;;;;;;6.19;56.11;97485.38;5034166;28;20027;-71
2023/11/30 03:08:05;;;;;;;10.23;4.68;;;;;;;6.11;57.49;97467.22;5017774;28;20033;-71
2023/11/30 03:10:31;;;;;;;7.80;4.47;;;;;;;6.18;57.44;97470.84;5028438;28;20083;-71
2023/11/30 03:12:59;;;;;;;8.23;4.82;;;;;;;6.20;56.76;97483.63;5023213;28;20047;-71
2023/11/30 03:15:24;;;;;;;10.35;6.15;;;;;;;6.05;55.00;97463.44;5035850;28;20025;-71
2023/11/30 03:17:49;;;;;;;11.48;6.85;;;;;;;6.09;54.76;97472.50;5014993;28;20702;-71
2023/11/30 03:20:16;;;;;;;11.65;7.20;;;;;;;5.89;54.83;97434.84;5034870;28;20095;-71
2023/11/30 03:22:41;;;;;;;12.05;7.00;;;;;;;5.96;55.15;97472.84;5033295;28;20106;-71
2023/11/30 03:25:07;;;;;;;13.82;7.82;;;;;;;5.85;55.77;97474.78;5051308;28;20135;-71
2023/11/30 03:27:35;;;;;;;15.10;7.45;;;;;;;5.65;56.19;97418.13;5015073;28;20029;-71
2023/11/30 03:30:00;;;;;;;11.68;7.82;;;;;;;5.99;57.74;97450.28;5020164;28;20040;-71
2023/11/30 03:32:25;;;;;;;11.63;7.78;;;;;;;5.85;58.41;97421.41;5026625;28;20025;-71
2023/11/30 03:34:51;;;;;;;10.40;7.63;;;;;;;5.88;60.50;97470.16;5031245;28;20495;-71
2023/11/30 03:37:16;;;;;;;11.73;8.07;;;;;;;5.88;62.60;97469.34;5012563;28;20059;-71
2023/11/30 03:39:41;;;;;;;11.50;8.02;;;;;;;5.83;64.20;97451.72;5034663;28;20151;-72
2023/11/30 03:42:09;;;;;;;10.77;7.40;;;;;;;5.82;65.08;97457.81;5028933;28;21088;-71
2023/11/30 03:44:34;;;;;;;13.88;9.07;;;;;;;5.47;66.79;97430.94;5032258;28;20357;-70
2023/11/30 03:47:00;;;;;;;14.98;8.55;;;;;;;5.85;67.21;97462.69;5035042;28;20036;-71
2023/11/30 03:49:25;;;;;;;14.27;8.85;;;;;;;5.76;68.97;97441.16;5034505;28;20060;-71
2023/11/30 03:51:55;;;;;;;12.48;8.18;;;;;;;5.73;69.89;97461.25;5035915;28;20025;-71
2023/11/30 03:54:23;;;;;;;14.07;8.63;;;;;;;5.75;69.83;97478.22;5030081;28;20127;-71
2023/11/30 03:56:48;;;;;;;12.18;8.63;;;;;;;5.62;70.51;97469.97;5033206;28;20037;-72
2023/11/30 03:59:16;;;;;;;11.68;8.38;;;;;;;5.44;70.14;97407.22;5031758;28;20029;-71
2023/11/30 04:01:41;;;;;;;14.18;9.27;;;;;;;5.73;70.45;97448.34;5032163;28;20029;-71
2023/11/30 04:04:06;;;;;;;14.80;9.20;;;;;;;5.54;71.45;97413.97;5032063;28;20032;-71
2023/11/30 04:06:32;;;;;;;12.50;9.13;;;;;;;5.63;71.83;97432.94;5033591;28;20646;-72
2023/11/30 04:08:59;;;;;;;14.38;9.05;;;;;;;5.62;72.22;97441.59;5032039;28;20112;-71
2023/11/30 04:11:26;;;;;;;15.27;9.30;;;;;;;5.65;71.26;97437.94;5028789;28;20025;-71
2023/11/30 04:13:54;;;;;;;14.10;9.52;;;;;;;5.80;70.63;97433.94;5029625;28;20535;-71
2023/11/30 04:16:22;;;;;;;13.95;9.35;;;;;;;5.76;71.50;97436.00;5029147;28;20447;-72
2023/11/30 04:18:47;;;;;;;15.05;9.70;;;;;;;5.71;71.67;97419.31;5013671;28;20072;-71
2023/11/30 04:21:13;;;;;;;13.45;9.32;;;;;;;5.82;71.18;97418.31;5030083;28;20127;-71
2023/11/30 04:23:38;;;;;;;12.48;8.88;;;;;;;5.81;71.46;97403.81;5025400;28;20033;-72
2023/11/30 04:26:06;;;;;;;12.38;9.48;;;;;;;5.67;71.54;97382.69;5016433;28;20518;-71
2023/11/30 04:28:31;;;;;;;13.35;9.38;;;;;;;5.62;72.22;97374.56;5032318;28;20529;-70
2023/11/30 04:30:57;;;;;;;13.40;9.40;;;;;;;5.66;71.72;97373.34;5035092;28;20029;-71
2023/11/30 04:33:25;;;;;;;15.63;9.68;;;;;;;5.71;71.58;97383.22;5030379;28;20060;-70
2023/11/30 04:35:50;;;;;;;13.82;9.32;;;;;;;5.78;71.95;97392.00;5021529;28;20069;-70
2023/11/30 04:38:18;;;;;;;16.75;9.20;;;;;;;5.38;72.03;97349.31;5033505;28;20131;-70
2023/11/30 04:40:46;;;;;;;15.10;9.63;;;;;;;5.79;72.09;97411.69;5033034;28;20121;-70
2023/11/30 04:43:12;;;;;;;13.50;9.30;;;;;;;5.88;71.33;97407.44;5033886;28;20116;-70
2023/11/30 04:45:37;;;;;;;14.25;9.05;;;;;;;5.80;71.53;97394.44;5029894;28;20083;-70
2023/11/30 04:48:02;;;;;;;13.20;9.15;;;;;;;5.81;72.10;97396.06;5050325;28;20036;-70
2023/11/30 04:50:30;;;;;;;15.43;9.23;;;;;;;5.86;71.99;97399.00;5035944;28;20661;-70
2023/11/30 04:52:56;;;;;;;13.00;9.30;;;;;;;5.78;72.18;97404.91;5051455;28;20061;-70
2023/11/30 04:55:26;;;;;;;14.75;9.75;;;;;;;5.63;72.03;97396.81;5035106;28;20071;-70
2023/11/30 04:57:52;;;;;;;14.85;9.70;;;;;;;5.78;72.72;97418.59;5018734;28;20131;-70
2023/11/30 05:00:18;;;;;;;13.73;9.63;;;;;;;5.85;72.25;97415.47;5048659;28;20021;-70
2023/11/30 05:02:56;;;;;;;14.05;9.68;;;;;;;5.76;72.34;97419.72;5021809;28;20049;-69
2023/11/30 05:05:26;;;;;;;13.73;9.57;;;;;;;5.56;71.92;97373.38;5032242;28;20211;-70
2023/11/30 05:07:52;;;;;;;15.50;10.55;;;;;;;5.76;72.73;97423.09;5018243;28;20653;-70
2023/11/30 05:10:17;;;;;;;14.02;10.30;;;;;;;5.82;71.86;97419.13;5048778;28;20025;-70
2023/11/30 05:12:43;;;;;;;14.80;9.55;;;;;;;5.70;72.64;97438.34;5015069;28;20506;-70
2023/11/30 05:15:11;;;;;;;15.32;10.50;;;;;;;5.77;72.93;97436.81;5048132;28;20040;-70
2023/11/30 05:17:36;;;;;;;18.08;10.50;;;;;;;5.73;73.26;97433.72;5026740;28;20445;-70
2023/11/30 05:20:03;;;;;;;14.27;9.90;;;;;;;5.77;73.60;97418.75;5033479;28;20562;-70
2023/11/30 05:22:31;;;;;;;13.85;10.45;;;;;;;5.67;73.74;97408.47;5015960;28;20112;-70
2023/11/30 05:24:56;;;;;;;14.15;10.10;;;;;;;5.82;74.50;97432.03;5035360;28;20766;-70
2023/11/30 05:27:24;;;;;;;15.30;10.13;;;;;;;5.80;74.11;97425.38;5018084;28;20123;-70
2023/11/30 05:29:52;;;;;;;14.65;9.88;;;;;;;5.70;75.08;97430.59;5037316;28;20029;-70
2023/11/30 05:32:21;;;;;;;15.73;10.95;;;;;;;5.81;74.42;97429.59;5029584;28;20520;-70
2023/11/30 05:34:51;;;;;;;14.35;9.50;;;;;;;5.73;75.09;97427.72;5030458;28;20067;-70
2023/11/30 05:37:18;;;;;;;15.48;11.35;;;;;;;5.56;74.69;97398.34;5022023;28;20044;-70
2023/11/30 05:39:43;;;;;;;14.27;10.13;;;;;;;5.87;73.30;97450.47;5029998;28;20041;-70
2023/11/30 05:42:11;;;;;;;15.18;9.85;;;;;;;5.89;73.76;97453.72;5036768;28;20040;-70
2023/11/30 05:44:39;;;;;;;15.23;10.90;;;;;;;5.93;74.42;97455.06;5034665;28;20457;-70
2023/11/30 05:47:07;;;;;;;15.77;10.60;;;;;;;5.62;75.14;97431.28;5026758;28;20049;-70
2023/11/30 05:49:32;;;;;;;14.45;10.48;;;;;;;5.47;74.84;97423.22;5034809;28;20033;-70
2023/11/30 05:51:58;;;;;;;16.13;10.93;;;;;;;5.76;73.93;97459.19;5041852;28;20094;-70
2023/11/30 05:54:23;;;;;;;14.88;9.73;;;;;;;5.82;74.40;97446.69;5039846;28;20054;-70
2023/11/30 05:56:49;;;;;;;16.48;11.15;;;;;;;5.50;75.28;97391.19;5047391;28;20041;-70
2023/11/30 05:59:16;;;;;;;15.90;11.18;;;;;;;5.76;75.73;97438.56;5015994;28;20030;-70
2023/11/30 06:01:42;;;;;;;14.32;9.88;;;;;;;5.74;76.59;97437.91;5029108;28;20052;-70
2023/11/30 06:04:10;;;;;;;17.02;10.73;;;;;;;5.50;78.69;97422.13;5016064;28;20033;-70
2023/11/30 06:06:38;;;;;;;16.23;11.32;;;;;;;5.61;79.15;97413.41;5036121;28;20013;-70
2023/11/30 06:09:06;;;;;;;14.68;10.63;;;;;;;5.67;79.99;97407.66;5018804;28;20551;-70
2023/11/30 06:11:32;;;;;;;16.08;11.27;;;;;;;5.36;80.13;97366.69;5020705;28;20132;-70
2023/11/30 06:13:57;;;;;;;17.35;11.75;;;;;;;5.51;82.01;97409.09;5034586;28;20850;-70
2023/11/30 06:16:23;;;;;;;20.27;12.02;;;;;;;5.53;82.43;97407.19;5043739;28;20026;-70
2023/11/30 06:18:50;;;;;;;16.08;11.90;;;;;;;5.62;83.38;97408.09;5033122;28;20033;-70
2023/11/30 06:21:18;;;;;;;15.25;11.13;;;;;;;5.57;82.94;97398.22;5037443;28;20037;-71
2023/11/30 06:23:43;;;;;;;15.30;11.30;;;;;;;5.66;82.25;97398.28;5009058;28;20154;-70
2023/11/30 06:26:09;;;;;;;16.30;12.38;;;;;;;5.67;83.68;97395.56;5029405;28;20569;-70
2023/11/30 06:28:35;;;;;;;17.10;12.27;;;;;;;5.56;84.19;97377.72;5020657;28;20033;-70
2023/11/30 06:31:00;;;;;;;17.63;12.80;;;;;;;5.81;83.28;97394.28;5041215;28;20029;-68
2023/11/30 06:33:28;;;;;;;17.70;12.43;;;;;;;5.63;83.36;97359.91;5030293;28;20067;-68
2023/11/30 06:35:56;;;;;;;16.63;12.18;;;;;;;5.75;83.67;97406.00;5037319;28;20056;-69
2023/11/30 06:38:21;;;;;;;15.02;11.65;;;;;;;5.78;83.76;97412.63;5008407;28;20034;-69
2023/11/30 06:40:48;;;;;;;16.50;12.05;;;;;;;5.89;82.89;97402.13;5006548;28;20033;-69
2023/11/30 06:43:14;;;;;;;16.02;11.50;;;;;;;5.83;83.55;97404.47;5042734;28;20036;-69
2023/11/30 06:45:39;;;;;;;17.27;12.10;;;;;;;5.75;83.64;97397.47;5031887;28;20025;-69
2023/11/30 06:48:05;;;;;;;16.23;11.45;;;;;;;5.83;83.93;97407.06;5031122;28;20049;-69
2023/11/30 06:50:30;;;;;;;16.77;11.95;;;;;;;5.66;84.94;97398.28;5029111;28;20480;-72
2023/11/30 06:52:56;;;;;;;18.05;12.35;;;;;;;5.66;85.42;97400.88;5033797;28;20559;-72
2023/11/30 06:55:24;;;;;;;17.08;12.02;;;;;;;5.79;84.70;97406.53;5031642;28;20780;-70
2023/11/30 06:57:49;;;;;;;17.73;12.25;;;;;;;5.81;84.79;97401.22;5015945;28;20064;-69
2023/11/30 07:00:15;;;;;;;17.75;12.10;;;;;;;5.76;84.69;97411.97;5032184;28;20642;-70
2023/11/30 07:02:43;;;;;;;18.85;12.23;;;;;;;5.77;84.72;97423.91;5027287;28;20029;-69
2023/11/30 07:05:11;;;;;;;17.77;12.63;;;;;;;5.78;85.15;97407.47;5028508;28;20071;-69
2023/11/30 07:07:36;;;;;;;16.50;11.82;;;;;;;5.79;85.02;97409.13;5014310;28;20037;-69
2023/11/30 07:10:04;;;;;;;18.65;12.32;;;;;;;5.74;85.21;97419.84;5015155;28;20033;-70
2023/11/30 07:12:29;;;;;;;17.65;12.75;;;;;;;5.84;85.61;97427.56;5013055;28;20036;-69
2023/11/30 07:14:55;;;;;;;18.58;13.25;;;;;;;5.86;85.21;97414.47;5029937;28;20025;-70
2023/11/30 07:17:23;;;;;;;18.25;12.65;;;;;;;5.60;86.09;97376.47;5029481;28;20676;-68
2023/11/30 07:19:51;;;;;;;18.00;13.40;;;;;;;5.79;87.19;97416.84;5017641;28;20420;-69
2023/11/30 07:22:20;;;;;;;17.33;13.00;;;;;;;5.57;87.51;97376.78;5033673;28;20025;-69
2023/11/30 07:24:47;;;;;;;16.08;12.93;;;;;;;5.84;87.59;97414.66;5029024;28;20030;-69
2023/11/30 07:27:18;;;;;;;18.10;13.35;;;;;;;5.78;87.46;97410.84;5016096;28;20049;-69
2023/11/30 07:29:44;;;;;;;17.55;12.50;;;;;;;5.87;86.18;97421.28;5029421;28;20056;-71
2023/11/30 07:32:14;;;;;;;19.10;13.07;;;;;;;5.78;86.00;97413.44;5035983;28;20111;-69
2023/11/30 07:34:42;;;;;;;19.27;13.43;;;;;;;5.89;85.75;97425.34;5033339;28;20052;-70
2023/11/30 07:37:09;;;;;;;17.70;12.55;;;;;;;5.78;85.82;97402.31;5030283;28;20029;-70
2023/11/30 07:39:37;;;;;;;17.02;12.30;;;;;;;5.88;85.06;97405.66;5028331;28;20025;-69
2023/11/30 07:42:08;;;;;;;17.77;12.52;;;;;;;5.95;85.23;97390.41;5013480;28;20499;-70
2023/11/30 07:44:36;;;;;;;18.38;13.05;;;;;;;5.66;85.41;97360.44;5044215;28;20116;-70
2023/11/30 07:47:01;;;;;;;17.70;12.88;;;;;;;5.83;85.90;97410.44;5032240;28;20043;-70
2023/11/30 07:49:26;;;;;;;16.80;12.40;;;;;;;5.97;84.76;97404.03;5049108;28;20813;-70
2023/11/30 07:51:52;;;;;;;18.35;13.50;;;;;;;5.92;87.21;97408.78;5031250;28;20064;-69
2023/11/30 07:54:17;;;;;;;20.23;14.38;;;;;;;5.88;87.16;97413.41;5028722;28;20076;-70
2023/11/30 07:56:43;;;;;;;19.05;13.60;;;;;;;5.99;87.26;97432.25;5033286;28;20029;-70
2023/11/30 07:59:12;;;;;;;19.65;13.85;;;;;;;5.76;87.65;97383.59;5031199;28;20064;-70
2023/11/30 08:01:37;;;;;;;19.02;13.27;;;;;;;5.85;87.49;97436.09;5033981;28;20486;-70
2023/11/30 08:04:03;;;;;;;16.92;12.70;;;;;;;5.87;88.57;97432.41;5017737;28;20064;-70
2023/11/30 08:06:33;;;;;;;15.07;10.90;;;;;;;5.52;84.28;97431.34;5013300;28;20468;-71
2023/11/30 08:09:04;;;;;;;14.15;10.05;;;;;;;5.24;83.16;97427.09;5031080;28;20064;-71
2023/11/30 08:11:29;;;;;;;13.13;9.68;;;;;;;5.13;84.03;97436.63;5028202;28;20039;-73
2023/11/30 08:13:57;;;;;;;16.27;10.52;;;;;;;4.96;83.89;97380.66;5043917;28;20049;-72
2023/11/30 08:16:25;;;;;;;13.50;10.20;;;;;;;5.38;85.02;97442.09;5047361;28;20032;-72
2023/11/30 08:18:50;;;;;;;15.82;10.85;;;;;;;5.35;87.02;97442.41;5031918;28;20124;-76
2023/11/30 08:21:21;;;;;;;18.67;13.68;;;;;;;5.42;89.56;97437.47;5028645;28;20082;-71
2023/11/30 08:23:47;;;;;;;20.20;14.35;;;;;;;5.33;90.32;97390.16;5024836;28;20032;-68
2023/11/30 08:26:16;;;;;;;17.80;11.90;;;;;;;5.33;86.63;97421.91;5023765;28;20354;-75
2023/11/30 08:28:44;;;;;;;17.05;11.50;;;;;;;4.82;87.18;97408.47;5024504;28;20380;-73
2023/11/30 08:31:12;;;;;;;14.07;9.93;;;;;;;4.81;87.12;97413.75;5025016;28;20344;-70
2023/11/30 08:33:37;;;;;;;15.32;9.52;;;;;;;4.43;86.91;97372.47;5024574;28;20149;-70
2023/11/30 08:36:05;;;;;;;14.07;8.75;;;;;;;4.26;87.61;97349.16;5023804;28;20741;-72
2023/11/30 08:38:38;;;;;;;15.10;10.15;;;;;;;4.55;86.87;97406.59;5024613;28;20339;-70
2023/11/30 08:41:06;;;;;;;12.88;8.70;;;;;;;4.59;87.54;97391.69;5019525;28;20159;-67
2023/11/30 08:43:36;;;;;;;14.00;8.82;;;;;;;4.35;87.24;97358.66;5025077;28;20055;-68
2023/11/30 08:46:04;;;;;;;16.15;9.50;;;;;;;4.20;88.48;97350.53;4999183;28;20881;-69
2023/11/30 08:48:29;;;;;;;11.25;8.15;;;;;;;4.08;85.82;97354.19;5027297;28;20025;-71
2023/11/30 08:50:57;;;;;;;11.32;7.50;;;;;;;4.33;85.09;97404.31;5021939;28;20028;-70
2023/11/30 08:53:27;;;;;;;9.80;5.65;;;;;;;4.28;86.85;97409.03;5022468;28;20052;-71
2023/11/30 08:55:52;;;;;;;12.23;7.00;;;;;;;4.35;85.33;97423.00;5019548;28;20035;-70
2023/11/30 08:58:18;;;;;;;13.05;7.40;;;;;;;4.22;85.81;97410.38;5023023;28;20403;-68
2023/11/30 09:00:44;;;;;;;11.50;7.70;;;;;;;4.24;85.03;97414.44;5009539;28;20047;-72
2023/11/30 09:03:09;;;;;;;12.65;7.88;;;;;;;4.26;87.63;97410.94;5022796;28;20029;-69
2023/11/30 09:05:37;;;;;;;13.13;8.40;;;;;;;4.23;88.29;97391.41;5040099;28;20809;-71
2023/11/30 09:08:02;;;;;;;13.20;8.55;;;;;;;4.34;87.51;97406.72;5039759;28;20041;-70
2023/11/30 09:10:28;;;;;;;12.77;8.48;;;;;;;4.24;87.89;97390.47;5002177;28;20032;-70
2023/11/30 09:12:53;;;;;;;16.73;9.02;;;;;;;4.29;89.52;97413.22;5025814;28;20029;-69
2023/11/30 09:15:19;;;;;;;13.38;8.25;;;;;;;4.39;88.86;97427.72;5031166;28;20963;-73
2023/11/30 09:17:45;;;;;;;14.75;9.23;;;;;;;4.38;88.41;97414.97;5026985;28;20029;-72
2023/11/30 09:20:11;;;;;;;15.05;9.43;;;;;;;4.48;90.18;97422.72;5003958;28;20597;-73
2023/11/30 09:22:36;;;;;;;14.82;8.95;;;;;;;4.43;88.44;97428.25;5005645;28;20036;-71
2023/11/30 09:25:05;;;;;;;14.10;8.48;;;;;;;4.36;89.05;97422.88;5026265;28;20032;-70
2023/11/30 09:27:30;;;;;;;16.77;10.15;;;;;;;4.36;90.21;97422.03;5030285;28;20040;-71
2023/11/30 09:29:56;;;;;;;16.05;10.23;;;;;;;4.41;90.41;97414.72;5024260;28;20110;-69
2023/11/30 09:32:26;;;;;;;14.00;7.68;;;;;;;4.29;88.77;97415.78;5035121;28;20032;-72
2023/11/30 09:34:54;;;;;;;12.45;7.97;;;;;;;4.30;87.45;97407.94;5027190;28;20033;-71
2023/11/30 09:37:22;;;;;;;12.40;8.45;;;;;;;4.30;87.24;97399.41;5027831;28;20033;-72
2023/11/30 09:39:50;;;;;;;10.02;6.65;;;;;;;3.94;83.92;97348.50;5030454;28;20029;-70
2023/11/30 09:42:18;;;;;;;11.63;7.72;;;;;;;4.31;86.28;97388.16;5006173;28;20378;-69
2023/11/30 09:44:46;;;;;;;13.57;7.05;;;;;;;4.22;86.16;97393.19;5029364;28;20633;-71
2023/11/30 09:47:12;;;;;;;11.05;6.63;;;;;;;4.24;84.90;97393.06;5026761;28;20143;-71
2023/11/30 09:49:45;;;;;;;10.15;6.57;;;;;;;4.26;85.16;97392.91;5031731;28;20029;-72
2023/11/30 09:52:10;;;;;;;11.35;7.13;;;;;;;4.06;86.84;97338.06;5019319;28;20041;-73
2023/11/30 09:54:39;;;;;;;13.63;7.75;;;;;;;4.31;84.63;97386.41;5011425;28;20049;-72
2023/11/30 09:57:04;;;;;;;10.25;6.40;;;;;;;4.31;85.60;97389.00;5027663;28;20070;-72
2023/11/30 09:59:30;;;;;;;9.50;6.30;;;;;;;4.33;84.78;97391.44;5018257;28;20539;-69
2023/11/30 10:01:59;;;;;;;11.10;5.78;;;;;;;4.19;83.60;97365.13;5012690;28;20037;-74
2023/11/30 10:04:25;;;;;;;8.50;4.72;;;;;;;4.50;82.09;97390.75;5024975;28;20055;-70
2023/11/30 10:06:54;;;;;;;8.02;4.43;;;;;;;4.53;82.40;97387.91;5045973;28;20028;-73
2023/11/30 10:09:22;;;;;;;8.32;4.53;;;;;;;4.70;82.13;97370.13;5024658;28;20773;-71
2023/11/30 10:11:47;;;;;;;8.52;5.18;;;;;;;4.40;84.74;97321.25;5025802;28;20026;-71
2023/11/30 10:14:13;;;;;;;7.18;4.13;;;;;;;4.68;81.74;97352.25;5010187;28;20035;-74
2023/11/30 10:16:41;;;;;;;5.90;3.25;;;;;;;4.57;79.97;97339.53;5040436;28;20041;-74
2023/11/30 10:19:07;;;;;;;8.55;3.92;;;;;;;4.30;81.80;97289.56;5028467;28;20029;-75
2023/11/30 10:21:32;;;;;;;7.68;3.42;;;;;;;4.58;80.10;97347.13;5041051;28;20139;-71
2023/11/30 10:23:58;;;;;;;6.28;3.45;;;;;;;4.73;79.64;97364.72;5029525;28;20051;-72
2023/11/30 10:26:26;;;;;;;6.80;3.20;;;;;;;4.58;79.29;97347.13;5023618;28;20025;-73
2023/11/30 10:28:53;;;;;;;7.55;3.10;;;;;;;4.69;79.84;97335.03;5028538;28;20040;-70
2023/11/30 10:31:23;;;;;;;5.68;2.50;;;;;;;4.68;79.51;97341.94;5025513;28;20044;-71
2023/11/30 10:33:59;;;;;;;;;;;;;;;4.78;78.67;97335.03;5027846;28;20063;-71
2023/11/30 10:36:30;;;;;;;7.18;3.80;;;;;;;4.31;79.33;97282.66;5023948;28;19952;-74
2023/11/30 10:39:01;;;;;;;5.30;2.80;;;;;;;4.74;79.38;97327.69;5028083;28;20028;-74
2023/11/30 10:41:49;;;;;;;5.97;2.83;;;;;;;4.71;78.33;97313.34;5004989;28;20040;-75
2023/11/30 10:44:25;;;;;;;8.63;4.60;;;;;;;4.69;78.65;97310.09;5021663;28;20190;-74
2023/11/30 10:46:55;;;;;;;9.02;5.20;;;;;;;4.77;78.29;97312.78;5011769;28;20407;-75
2023/11/30 10:49:22;;;;;;;8.60;4.53;;;;;;;4.78;79.51;97298.13;5023881;28;20653;-75
2023/11/30 10:51:52;;;;;;;10.70;6.32;;;;;;;4.49;79.70;97254.44;5009031;28;20111;-73
2023/11/30 10:54:42;;;;;;;9.73;5.43;;;;;;;4.67;80.10;97293.16;5024318;28;21127;-72
2023/11/30 10:57:09;;;;;;;9.27;4.78;;;;;;;4.66;81.36;97283.81;5014212;28;20036;-73
2023/11/30 10:59:35;;;;;;;9.65;5.15;;;;;;;4.70;82.07;97287.72;5037839;28;20648;-75
2023/11/30 11:02:01;;;;;;;8.88;3.95;;;;;;;4.56;80.98;97288.97;5003418;28;20032;-74
2023/11/30 11:04:27;;;;;;;8.73;4.85;;;;;;;4.38;82.52;97248.53;5026372;28;20047;-73
2023/11/30 11:07:05;;;;;;;10.13;5.40;;;;;;;4.65;83.38;97277.03;5038392;28;20028;-74
2023/11/30 11:09:46;;;;;;;9.10;4.60;;;;;;;4.76;82.12;97274.28;5020741;28;20033;-73
2023/11/30 11:12:22;;;;;;;8.10;4.88;;;;;;;4.70;80.50;97274.84;5022558;28;20024;-74
2023/11/30 11:14:48;;;;;;;7.45;4.25;;;;;;;4.65;81.58;97267.53;5020725;28;20036;-72
2023/11/30 11:17:14;;;;;;;8.65;4.20;;;;;;;4.75;82.25;97268.34;5027489;28;20032;-72
2023/11/30 11:19:43;;;;;;;7.10;3.88;;;;;;;4.77;81.34;97260.47;5023078;28;20095;-71
2023/11/30 11:22:26;;;;;;;6.93;3.73;;;;;;;4.82;80.71;97260.88;5001794;28;20021;-74
2023/11/30 11:24:59;;;;;;;7.30;3.90;;;;;;;4.78;79.81;97237.16;5015324;28;20317;-72
2023/11/30 11:27:31;;;;;;;8.13;3.72;;;;;;;4.94;81.04;97241.69;5027619;28;20025;-73
2023/11/30 11:30:02;;;;;;;6.53;3.38;;;;;;;4.58;78.81;97194.38;5037299;28;20057;-74
2023/11/30 11:32:31;;;;;;;6.45;3.40;;;;;;;4.94;78.58;97228.00;5017767;28;20210;-72
2023/11/30 11:34:56;;;;;;;7.50;3.53;;;;;;;4.95;77.58;97227.06;5021149;28;20914;-75